Hauptseite
METAR-TAF:

METAR-TAF

Flughäfen :

Flughafen Wakkanai

Wakkanai, Japan

Breite: 45-24N, Länge: 141-48E, Höhe: 8 m

Beobachtung

Neuester Wetterbericht von vor 39 Minuten, um 05:00 UTC
Wind 4 kt aus Nord/Nordost, variierte zwischen Nordwest und Ost
Temperatur -8°C
Luftfeuchtigkeit 57%
Luftdruck 1028 hPa
Sichtweite 10 km oder mehr
Leicht bewölkt in der Höhe von 2500 ft

METAR: RJCW 280500Z 02004KT 320V090 9999 FEW025 M08/M15 Q1028

Zeit: 14:39 (05:39 UTC)


TAF: fehlend

Wetterbeobachtungen und Prognosen von mehr als 4000 Flughäfen (METAR und TAF Bericht).

Die verfügbaren Stationen werden durch gelbe und rote Markierungen auf der Karte dargestellt.

Führen Sie die Maus auf sie, um den Namen der Station zu sehen.

Darauf klicken, um die Beobachtung von Wetterbeobachtungen und Prognosen zu sehen.

Um die Karte zu ändern : klicken Sie auf den grünen Tasten mit einem schwarzen Kreuz Zum Vergrößern, auf den grünen Button mit einem Gedankenstrich zu verkleinern, oder auf die grünen Pfeile für benachbarte Karten.


METAR-TAF: